sensor_id;sensor_type;location;lat;lon;timestamp;P1;durP1;ratioP1;P2;durP2;ratioP2
13785;SDS011;47474;48.824;9.384;2023-07-29T00:01:27;1.95;;;1.85;;
13785;SDS011;47474;48.824;9.384;2023-07-29T00:03:53;2.08;;;1.90;;
13785;SDS011;47474;48.824;9.384;2023-07-29T00:06:20;2.75;;;1.90;;
13785;SDS011;47474;48.824;9.384;2023-07-29T00:08:46;2.50;;;2.10;;
13785;SDS011;47474;48.824;9.384;2023-07-29T00:11:13;4.07;;;1.88;;
13785;SDS011;47474;48.824;9.384;2023-07-29T00:13:41;2.65;;;2.10;;
13785;SDS011;47474;48.824;9.384;2023-07-29T00:16:12;4.40;;;2.40;;
13785;SDS011;47474;48.824;9.384;2023-07-29T00:18:40;6.70;;;2.47;;
13785;SDS011;47474;48.824;9.384;2023-07-29T00:21:07;1.98;;;1.77;;
13785;SDS011;47474;48.824;9.384;2023-07-29T00:23:33;3.78;;;1.92;;
13785;SDS011;47474;48.824;9.384;2023-07-29T00:26:00;3.00;;;2.00;;
13785;SDS011;47474;48.824;9.384;2023-07-29T00:28:27;1.80;;;1.60;;
13785;SDS011;47474;48.824;9.384;2023-07-29T00:30:55;4.82;;;2.10;;
13785;SDS011;47474;48.824;9.384;2023-07-29T00:33:21;2.25;;;1.83;;
13785;SDS011;47474;48.824;9.384;2023-07-29T00:35:48;1.92;;;1.42;;
13785;SDS011;47474;48.824;9.384;2023-07-29T00:38:14;2.38;;;1.50;;
13785;SDS011;47474;48.824;9.384;2023-07-29T00:40:41;3.20;;;1.90;;
13785;SDS011;47474;48.824;9.384;2023-07-29T00:43:08;2.22;;;1.50;;
13785;SDS011;47474;48.824;9.384;2023-07-29T00:45:34;3.08;;;2.00;;
13785;SDS011;47474;48.824;9.384;2023-07-29T00:48:03;4.78;;;2.25;;
13785;SDS011;47474;48.824;9.384;2023-07-29T00:50:30;3.42;;;1.98;;
13785;SDS011;47474;48.824;9.384;2023-07-29T00:52:57;5.70;;;2.13;;
13785;SDS011;47474;48.824;9.384;2023-07-29T00:55:24;2.17;;;2.03;;
13785;SDS011;47474;48.824;9.384;2023-07-29T00:57:50;4.57;;;2.33;;
13785;SDS011;47474;48.824;9.384;2023-07-29T01:00:19;2.78;;;2.30;;
13785;SDS011;47474;48.824;9.384;2023-07-29T01:02:46;5.78;;;2.55;;
13785;SDS011;47474;48.824;9.384;2023-07-29T01:05:15;8.10;;;2.80;;
13785;SDS011;47474;48.824;9.384;2023-07-29T01:07:44;3.83;;;2.45;;
13785;SDS011;47474;48.824;9.384;2023-07-29T01:10:16;3.35;;;2.20;;
13785;SDS011;47474;48.824;9.384;2023-07-29T01:12:47;4.35;;;2.40;;
13785;SDS011;47474;48.824;9.384;2023-07-29T01:15:16;7.20;;;3.25;;
13785;SDS011;47474;48.824;9.384;2023-07-29T01:17:46;5.65;;;3.70;;
13785;SDS011;47474;48.824;9.384;2023-07-29T01:20:17;4.55;;;3.75;;
13785;SDS011;47474;48.824;9.384;2023-07-29T01:22:45;5.60;;;2.88;;
13785;SDS011;47474;48.824;9.384;2023-07-29T01:25:14;3.05;;;2.78;;
13785;SDS011;47474;48.824;9.384;2023-07-29T01:27:43;3.00;;;2.50;;
13785;SDS011;47474;48.824;9.384;2023-07-29T01:30:16;4.07;;;2.90;;
13785;SDS011;47474;48.824;9.384;2023-07-29T01:32:46;2.42;;;2.20;;
13785;SDS011;47474;48.824;9.384;2023-07-29T01:35:19;2.47;;;2.28;;
13785;SDS011;47474;48.824;9.384;2023-07-29T01:37:55;2.97;;;2.67;;
13785;SDS011;47474;48.824;9.384;2023-07-29T01:40:26;3.25;;;2.60;;
13785;SDS011;47474;48.824;9.384;2023-07-29T01:42:53;3.08;;;2.78;;
13785;SDS011;47474;48.824;9.384;2023-07-29T01:45:22;2.58;;;2.38;;
13785;SDS011;47474;48.824;9.384;2023-07-29T01:47:49;3.45;;;3.15;;
13785;SDS011;47474;48.824;9.384;2023-07-29T01:50:16;4.18;;;3.63;;
13785;SDS011;47474;48.824;9.384;2023-07-29T01:52:43;4.00;;;3.35;;
13785;SDS011;47474;48.824;9.384;2023-07-29T01:55:09;3.25;;;3.00;;
13785;SDS011;47474;48.824;9.384;2023-07-29T01:57:37;5.07;;;3.50;;
13785;SDS011;47474;48.824;9.384;2023-07-29T02:00:04;4.20;;;3.35;;
13785;SDS011;47474;48.824;9.384;2023-07-29T02:02:34;4.10;;;3.35;;
13785;SDS011;47474;48.824;9.384;2023-07-29T02:05:04;5.25;;;3.78;;
13785;SDS011;47474;48.824;9.384;2023-07-29T02:07:31;4.80;;;3.85;;
13785;SDS011;47474;48.824;9.384;2023-07-29T02:10:00;3.38;;;2.83;;
13785;SDS011;47474;48.824;9.384;2023-07-29T02:12:29;3.38;;;3.13;;
13785;SDS011;47474;48.824;9.384;2023-07-29T02:14:57;3.22;;;2.95;;
13785;SDS011;47474;48.824;9.384;2023-07-29T02:17:24;2.85;;;2.60;;
13785;SDS011;47474;48.824;9.384;2023-07-29T02:19:51;3.05;;;2.72;;
13785;SDS011;47474;48.824;9.384;2023-07-29T02:22:18;3.25;;;2.92;;
13785;SDS011;47474;48.824;9.384;2023-07-29T02:24:44;3.58;;;2.80;;
13785;SDS011;47474;48.824;9.384;2023-07-29T02:27:11;4.72;;;2.65;;
13785;SDS011;47474;48.824;9.384;2023-07-29T02:29:41;3.03;;;2.75;;
13785;SDS011;47474;48.824;9.384;2023-07-29T02:32:09;3.85;;;2.60;;
13785;SDS011;47474;48.824;9.384;2023-07-29T02:34:35;3.15;;;2.63;;
13785;SDS011;47474;48.824;9.384;2023-07-29T02:37:02;2.72;;;2.53;;
13785;SDS011;47474;48.824;9.384;2023-07-29T02:39:29;2.88;;;2.65;;
13785;SDS011;47474;48.824;9.384;2023-07-29T02:41:56;2.75;;;2.55;;
13785;SDS011;47474;48.824;9.384;2023-07-29T02:44:23;3.75;;;2.60;;
13785;SDS011;47474;48.824;9.384;2023-07-29T02:46:50;4.13;;;3.00;;
13785;SDS011;47474;48.824;9.384;2023-07-29T02:49:21;2.92;;;2.22;;
13785;SDS011;47474;48.824;9.384;2023-07-29T02:51:47;3.83;;;2.50;;
13785;SDS011;47474;48.824;9.384;2023-07-29T02:54:14;2.92;;;2.72;;
13785;SDS011;47474;48.824;9.384;2023-07-29T02:56:40;3.25;;;2.80;;
13785;SDS011;47474;48.824;9.384;2023-07-29T02:59:07;3.42;;;2.58;;
13785;SDS011;47474;48.824;9.384;2023-07-29T03:01:34;2.95;;;2.47;;
13785;SDS011;47474;48.824;9.384;2023-07-29T03:04:00;5.63;;;2.50;;
13785;SDS011;47474;48.824;9.384;2023-07-29T03:06:28;2.72;;;2.53;;
13785;SDS011;47474;48.824;9.384;2023-07-29T03:08:55;2.60;;;2.30;;
13785;SDS011;47474;48.824;9.384;2023-07-29T03:11:21;7.53;;;2.70;;
13785;SDS011;47474;48.824;9.384;2023-07-29T03:13:48;2.80;;;2.60;;
13785;SDS011;47474;48.824;9.384;2023-07-29T03:16:15;3.22;;;2.90;;
13785;SDS011;47474;48.824;9.384;2023-07-29T03:18:42;3.08;;;2.70;;
13785;SDS011;47474;48.824;9.384;2023-07-29T03:21:10;3.47;;;3.15;;
13785;SDS011;47474;48.824;9.384;2023-07-29T03:23:38;3.00;;;2.53;;
13785;SDS011;47474;48.824;9.384;2023-07-29T03:26:04;3.85;;;2.70;;
13785;SDS011;47474;48.824;9.384;2023-07-29T03:28:35;3.22;;;2.92;;
13785;SDS011;47474;48.824;9.384;2023-07-29T03:31:02;3.45;;;2.95;;
13785;SDS011;47474;48.824;9.384;2023-07-29T03:33:29;4.63;;;2.97;;
13785;SDS011;47474;48.824;9.384;2023-07-29T03:35:56;3.25;;;2.70;;
13785;SDS011;47474;48.824;9.384;2023-07-29T03:38:22;3.05;;;2.85;;
13785;SDS011;47474;48.824;9.384;2023-07-29T03:40:50;2.80;;;2.50;;
13785;SDS011;47474;48.824;9.384;2023-07-29T03:43:18;3.42;;;2.70;;
13785;SDS011;47474;48.824;9.384;2023-07-29T03:45:45;4.03;;;2.40;;
13785;SDS011;47474;48.824;9.384;2023-07-29T03:48:12;4.05;;;2.90;;
13785;SDS011;47474;48.824;9.384;2023-07-29T03:50:38;3.00;;;2.38;;
13785;SDS011;47474;48.824;9.384;2023-07-29T03:53:05;4.13;;;2.50;;
13785;SDS011;47474;48.824;9.384;2023-07-29T03:55:32;3.95;;;2.33;;
13785;SDS011;47474;48.824;9.384;2023-07-29T03:58:00;2.85;;;2.65;;
13785;SDS011;47474;48.824;9.384;2023-07-29T04:00:26;2.88;;;2.60;;
13785;SDS011;47474;48.824;9.384;2023-07-29T04:02:53;2.45;;;2.22;;
13785;SDS011;47474;48.824;9.384;2023-07-29T04:05:20;2.67;;;2.42;;
13785;SDS011;47474;48.824;9.384;2023-07-29T04:07:46;3.33;;;2.67;;
13785;SDS011;47474;48.824;9.384;2023-07-29T04:10:13;2.50;;;2.30;;
13785;SDS011;47474;48.824;9.384;2023-07-29T04:12:40;4.32;;;2.60;;
13785;SDS011;47474;48.824;9.384;2023-07-29T04:15:08;2.45;;;2.25;;
13785;SDS011;47474;48.824;9.384;2023-07-29T04:17:35;2.22;;;2.13;;
13785;SDS011;47474;48.824;9.384;2023-07-29T04:20:01;4.72;;;2.55;;
13785;SDS011;47474;48.824;9.384;2023-07-29T04:22:28;3.13;;;1.92;;
13785;SDS011;47474;48.824;9.384;2023-07-29T04:24:55;5.40;;;2.60;;
13785;SDS011;47474;48.824;9.384;2023-07-29T04:27:22;3.22;;;2.67;;
13785;SDS011;47474;48.824;9.384;2023-07-29T04:29:48;2.83;;;2.60;;
13785;SDS011;47474;48.824;9.384;2023-07-29T04:32:17;3.90;;;2.58;;
13785;SDS011;47474;48.824;9.384;2023-07-29T04:34:43;4.05;;;2.75;;
13785;SDS011;47474;48.824;9.384;2023-07-29T04:37:10;4.00;;;2.35;;
13785;SDS011;47474;48.824;9.384;2023-07-29T04:39:37;2.78;;;2.53;;
13785;SDS011;47474;48.824;9.384;2023-07-29T04:42:03;3.35;;;3.05;;
13785;SDS011;47474;48.824;9.384;2023-07-29T04:44:31;4.75;;;2.80;;
13785;SDS011;47474;48.824;9.384;2023-07-29T04:46:57;4.45;;;2.45;;
13785;SDS011;47474;48.824;9.384;2023-07-29T04:49:25;3.55;;;2.70;;
13785;SDS011;47474;48.824;9.384;2023-07-29T04:51:51;5.00;;;2.88;;
13785;SDS011;47474;48.824;9.384;2023-07-29T04:54:18;2.75;;;2.55;;
13785;SDS011;47474;48.824;9.384;2023-07-29T04:56:45;3.15;;;2.70;;
13785;SDS011;47474;48.824;9.384;2023-07-29T04:59:12;3.03;;;2.70;;
13785;SDS011;47474;48.824;9.384;2023-07-29T05:01:39;4.95;;;3.17;;
13785;SDS011;47474;48.824;9.384;2023-07-29T05:04:07;5.43;;;2.92;;
13785;SDS011;47474;48.824;9.384;2023-07-29T05:06:35;4.18;;;2.92;;
13785;SDS011;47474;48.824;9.384;2023-07-29T05:09:12;4.90;;;4.40;;
13785;SDS011;47474;48.824;9.384;2023-07-29T05:11:39;4.07;;;3.38;;
13785;SDS011;47474;48.824;9.384;2023-07-29T05:14:06;3.72;;;2.80;;
13785;SDS011;47474;48.824;9.384;2023-07-29T05:16:34;3.20;;;2.90;;
13785;SDS011;47474;48.824;9.384;2023-07-29T05:19:00;3.20;;;2.90;;
13785;SDS011;47474;48.824;9.384;2023-07-29T05:21:27;3.03;;;2.75;;
13785;SDS011;47474;48.824;9.384;2023-07-29T05:23:55;3.20;;;2.88;;
13785;SDS011;47474;48.824;9.384;2023-07-29T05:26:21;2.70;;;2.50;;
13785;SDS011;47474;48.824;9.384;2023-07-29T05:28:48;3.28;;;2.97;;
13785;SDS011;47474;48.824;9.384;2023-07-29T05:31:15;2.70;;;2.50;;
13785;SDS011;47474;48.824;9.384;2023-07-29T05:33:41;2.95;;;2.75;;
13785;SDS011;47474;48.824;9.384;2023-07-29T05:36:08;2.78;;;2.58;;
13785;SDS011;47474;48.824;9.384;2023-07-29T05:38:34;2.50;;;2.30;;
13785;SDS011;47474;48.824;9.384;2023-07-29T05:41:05;2.55;;;2.35;;
13785;SDS011;47474;48.824;9.384;2023-07-29T05:43:32;3.13;;;2.83;;
13785;SDS011;47474;48.824;9.384;2023-07-29T05:45:58;3.45;;;2.80;;
13785;SDS011;47474;48.824;9.384;2023-07-29T05:48:25;6.15;;;3.95;;
13785;SDS011;47474;48.824;9.384;2023-07-29T05:50:52;4.60;;;3.50;;
13785;SDS011;47474;48.824;9.384;2023-07-29T05:53:19;3.90;;;3.50;;
13785;SDS011;47474;48.824;9.384;2023-07-29T05:55:46;5.63;;;3.85;;
13785;SDS011;47474;48.824;9.384;2023-07-29T05:58:14;3.50;;;3.15;;
13785;SDS011;47474;48.824;9.384;2023-07-29T06:00:40;4.30;;;3.50;;
13785;SDS011;47474;48.824;9.384;2023-07-29T06:03:07;5.07;;;3.30;;
13785;SDS011;47474;48.824;9.384;2023-07-29T06:05:34;2.78;;;2.58;;
13785;SDS011;47474;48.824;9.384;2023-07-29T06:08:00;3.03;;;2.83;;
13785;SDS011;47474;48.824;9.384;2023-07-29T06:10:27;3.30;;;3.00;;
13785;SDS011;47474;48.824;9.384;2023-07-29T06:12:54;2.60;;;2.40;;
13785;SDS011;47474;48.824;9.384;2023-07-29T06:15:21;2.97;;;2.67;;
13785;SDS011;47474;48.824;9.384;2023-07-29T06:17:48;4.00;;;3.03;;
13785;SDS011;47474;48.824;9.384;2023-07-29T06:20:15;5.63;;;2.85;;
13785;SDS011;47474;48.824;9.384;2023-07-29T06:22:42;2.55;;;2.35;;
13785;SDS011;47474;48.824;9.384;2023-07-29T06:25:08;6.00;;;3.00;;
13785;SDS011;47474;48.824;9.384;2023-07-29T06:27:35;2.83;;;2.63;;
13785;SDS011;47474;48.824;9.384;2023-07-29T06:30:02;2.78;;;2.58;;
13785;SDS011;47474;48.824;9.384;2023-07-29T06:32:32;3.08;;;2.75;;
13785;SDS011;47474;48.824;9.384;2023-07-29T06:35:00;3.50;;;2.88;;
13785;SDS011;47474;48.824;9.384;2023-07-29T06:37:29;3.03;;;2.83;;
13785;SDS011;47474;48.824;9.384;2023-07-29T06:39:55;2.90;;;2.60;;
13785;SDS011;47474;48.824;9.384;2023-07-29T06:42:30;2.65;;;2.45;;
13785;SDS011;47474;48.824;9.384;2023-07-29T06:45:03;3.08;;;2.42;;
13785;SDS011;47474;48.824;9.384;2023-07-29T06:47:30;4.45;;;2.33;;
13785;SDS011;47474;48.824;9.384;2023-07-29T06:49:58;3.88;;;2.45;;
13785;SDS011;47474;48.824;9.384;2023-07-29T06:52:25;2.45;;;2.25;;
13785;SDS011;47474;48.824;9.384;2023-07-29T06:55:12;3.45;;;2.53;;
13785;SDS011;47474;48.824;9.384;2023-07-29T06:57:46;2.95;;;2.30;;
13785;SDS011;47474;48.824;9.384;2023-07-29T07:00:40;2.35;;;2.15;;
13785;SDS011;47474;48.824;9.384;2023-07-29T07:06:46;2.42;;;2.22;;
13785;SDS011;47474;48.824;9.384;2023-07-29T07:09:26;2.60;;;2.40;;
13785;SDS011;47474;48.824;9.384;2023-07-29T07:15:01;2.60;;;2.40;;
13785;SDS011;47474;48.824;9.384;2023-07-29T07:17:45;2.70;;;2.50;;
13785;SDS011;47474;48.824;9.384;2023-07-29T07:23:24;3.17;;;2.88;;
13785;SDS011;47474;48.824;9.384;2023-07-29T07:25:57;6.20;;;3.42;;
13785;SDS011;47474;48.824;9.384;2023-07-29T07:28:34;3.40;;;3.03;;
13785;SDS011;47474;48.824;9.384;2023-07-29T07:31:01;3.28;;;2.80;;
13785;SDS011;47474;48.824;9.384;2023-07-29T07:33:41;3.38;;;3.08;;
13785;SDS011;47474;48.824;9.384;2023-07-29T07:36:21;3.50;;;3.20;;
13785;SDS011;47474;48.824;9.384;2023-07-29T07:38:55;3.17;;;2.70;;
13785;SDS011;47474;48.824;9.384;2023-07-29T07:41:26;5.20;;;3.10;;
13785;SDS011;47474;48.824;9.384;2023-07-29T07:44:05;3.25;;;2.95;;
13785;SDS011;47474;48.824;9.384;2023-07-29T07:46:32;3.50;;;3.20;;
13785;SDS011;47474;48.824;9.384;2023-07-29T07:48:58;3.38;;;3.08;;
13785;SDS011;47474;48.824;9.384;2023-07-29T07:51:32;3.60;;;3.28;;
13785;SDS011;47474;48.824;9.384;2023-07-29T07:54:19;3.40;;;3.10;;
13785;SDS011;47474;48.824;9.384;2023-07-29T07:56:59;3.50;;;3.20;;
13785;SDS011;47474;48.824;9.384;2023-07-29T07:59:38;3.50;;;3.30;;
13785;SDS011;47474;48.824;9.384;2023-07-29T08:02:16;3.40;;;3.10;;
13785;SDS011;47474;48.824;9.384;2023-07-29T08:04:56;3.20;;;2.90;;
13785;SDS011;47474;48.824;9.384;2023-07-29T08:07:49;3.25;;;2.80;;
13785;SDS011;47474;48.824;9.384;2023-07-29T08:10:32;4.20;;;2.65;;
13785;SDS011;47474;48.824;9.384;2023-07-29T08:12:59;2.78;;;2.28;;
13785;SDS011;47474;48.824;9.384;2023-07-29T08:15:29;3.08;;;2.40;;
13785;SDS011;47474;48.824;9.384;2023-07-29T08:18:00;2.60;;;2.40;;
13785;SDS011;47474;48.824;9.384;2023-07-29T08:20:43;3.30;;;2.50;;
13785;SDS011;47474;48.824;9.384;2023-07-29T08:26:27;2.75;;;2.55;;
13785;SDS011;47474;48.824;9.384;2023-07-29T08:29:03;2.55;;;2.28;;
13785;SDS011;47474;48.824;9.384;2023-07-29T08:31:35;2.45;;;2.25;;
13785;SDS011;47474;48.824;9.384;2023-07-29T08:34:05;2.63;;;2.30;;
13785;SDS011;47474;48.824;9.384;2023-07-29T08:36:49;2.92;;;2.33;;
13785;SDS011;47474;48.824;9.384;2023-07-29T08:39:19;2.65;;;2.20;;
13785;SDS011;47474;48.824;9.384;2023-07-29T08:41:49;2.60;;;2.40;;
13785;SDS011;47474;48.824;9.384;2023-07-29T08:44:30;3.50;;;2.40;;
13785;SDS011;47474;48.824;9.384;2023-07-29T08:47:10;2.72;;;2.53;;
13785;SDS011;47474;48.824;9.384;2023-07-29T08:49:39;2.50;;;2.30;;
13785;SDS011;47474;48.824;9.384;2023-07-29T08:52:09;3.17;;;2.70;;
13785;SDS011;47474;48.824;9.384;2023-07-29T08:54:40;2.67;;;2.45;;
13785;SDS011;47474;48.824;9.384;2023-07-29T08:57:20;2.67;;;2.45;;
13785;SDS011;47474;48.824;9.384;2023-07-29T08:59:48;3.22;;;2.58;;
13785;SDS011;47474;48.824;9.384;2023-07-29T09:02:14;3.35;;;2.60;;
13785;SDS011;47474;48.824;9.384;2023-07-29T09:04:41;3.95;;;2.90;;
13785;SDS011;47474;48.824;9.384;2023-07-29T09:07:07;2.95;;;2.28;;
13785;SDS011;47474;48.824;9.384;2023-07-29T09:09:34;2.90;;;2.70;;
13785;SDS011;47474;48.824;9.384;2023-07-29T09:12:02;4.70;;;3.13;;
13785;SDS011;47474;48.824;9.384;2023-07-29T09:14:29;3.13;;;2.83;;
13785;SDS011;47474;48.824;9.384;2023-07-29T09:16:56;3.20;;;2.80;;
13785;SDS011;47474;48.824;9.384;2023-07-29T09:19:24;3.30;;;3.03;;
13785;SDS011;47474;48.824;9.384;2023-07-29T09:21:51;2.85;;;2.65;;
13785;SDS011;47474;48.824;9.384;2023-07-29T09:24:18;3.13;;;2.80;;
13785;SDS011;47474;48.824;9.384;2023-07-29T09:26:48;3.58;;;3.13;;
13785;SDS011;47474;48.824;9.384;2023-07-29T09:29:16;4.18;;;2.88;;
13785;SDS011;47474;48.824;9.384;2023-07-29T09:31:48;3.15;;;2.80;;
13785;SDS011;47474;48.824;9.384;2023-07-29T09:34:15;2.65;;;2.25;;
13785;SDS011;47474;48.824;9.384;2023-07-29T09:36:41;2.78;;;2.58;;
13785;SDS011;47474;48.824;9.384;2023-07-29T09:39:10;3.72;;;2.60;;
13785;SDS011;47474;48.824;9.384;2023-07-29T09:41:37;2.95;;;2.53;;
13785;SDS011;47474;48.824;9.384;2023-07-29T09:44:04;3.20;;;2.95;;
13785;SDS011;47474;48.824;9.384;2023-07-29T09:46:33;3.10;;;2.90;;
13785;SDS011;47474;48.824;9.384;2023-07-29T09:49:01;2.85;;;2.38;;
13785;SDS011;47474;48.824;9.384;2023-07-29T09:51:28;3.22;;;2.92;;
13785;SDS011;47474;48.824;9.384;2023-07-29T09:53:54;3.03;;;2.83;;
13785;SDS011;47474;48.824;9.384;2023-07-29T09:56:24;3.53;;;3.22;;
13785;SDS011;47474;48.824;9.384;2023-07-29T09:58:53;2.72;;;2.53;;
13785;SDS011;47474;48.824;9.384;2023-07-29T10:01:21;2.72;;;2.42;;
13785;SDS011;47474;48.824;9.384;2023-07-29T10:03:49;2.72;;;2.53;;
13785;SDS011;47474;48.824;9.384;2023-07-29T10:06:16;3.03;;;2.63;;
13785;SDS011;47474;48.824;9.384;2023-07-29T10:08:43;2.38;;;2.17;;
13785;SDS011;47474;48.824;9.384;2023-07-29T10:11:10;3.42;;;2.67;;
13785;SDS011;47474;48.824;9.384;2023-07-29T10:13:38;3.45;;;2.47;;
13785;SDS011;47474;48.824;9.384;2023-07-29T10:16:05;2.80;;;2.30;;
13785;SDS011;47474;48.824;9.384;2023-07-29T10:18:32;2.63;;;2.42;;
13785;SDS011;47474;48.824;9.384;2023-07-29T10:21:01;2.47;;;2.28;;
13785;SDS011;47474;48.824;9.384;2023-07-29T10:23:32;2.63;;;2.42;;
13785;SDS011;47474;48.824;9.384;2023-07-29T10:26:02;4.43;;;2.50;;
13785;SDS011;47474;48.824;9.384;2023-07-29T10:28:30;1.95;;;1.83;;
13785;SDS011;47474;48.824;9.384;2023-07-29T10:30:57;3.20;;;1.67;;
13785;SDS011;47474;48.824;9.384;2023-07-29T10:33:23;2.05;;;1.77;;
13785;SDS011;47474;48.824;9.384;2023-07-29T10:35:55;1.80;;;1.70;;
13785;SDS011;47474;48.824;9.384;2023-07-29T10:38:23;3.53;;;1.48;;
13785;SDS011;47474;48.824;9.384;2023-07-29T10:40:51;1.80;;;1.52;;
13785;SDS011;47474;48.824;9.384;2023-07-29T10:43:23;2.05;;;1.58;;
13785;SDS011;47474;48.824;9.384;2023-07-29T10:45:51;2.80;;;1.75;;
13785;SDS011;47474;48.824;9.384;2023-07-29T10:51:22;1.52;;;1.35;;
13785;SDS011;47474;48.824;9.384;2023-07-29T10:53:53;3.17;;;1.98;;
13785;SDS011;47474;48.824;9.384;2023-07-29T10:56:27;3.30;;;1.85;;
13785;SDS011;47474;48.824;9.384;2023-07-29T10:58:55;2.65;;;1.90;;
13785;SDS011;47474;48.824;9.384;2023-07-29T11:01:26;2.75;;;1.92;;
13785;SDS011;47474;48.824;9.384;2023-07-29T11:09:53;2.25;;;2.13;;
13785;SDS011;47474;48.824;9.384;2023-07-29T11:12:39;2.45;;;2.25;;
13785;SDS011;47474;48.824;9.384;2023-07-29T11:15:12;2.70;;;2.50;;
13785;SDS011;47474;48.824;9.384;2023-07-29T11:17:41;2.92;;;2.50;;
13785;SDS011;47474;48.824;9.384;2023-07-29T11:20:09;3.25;;;2.85;;
13785;SDS011;47474;48.824;9.384;2023-07-29T11:22:37;2.45;;;2.28;;
13785;SDS011;47474;48.824;9.384;2023-07-29T11:25:06;2.60;;;2.30;;
13785;SDS011;47474;48.824;9.384;2023-07-29T11:27:34;2.60;;;2.40;;
13785;SDS011;47474;48.824;9.384;2023-07-29T11:30:02;2.60;;;2.40;;
13785;SDS011;47474;48.824;9.384;2023-07-29T11:32:31;2.03;;;1.83;;
13785;SDS011;47474;48.824;9.384;2023-07-29T11:35:01;2.55;;;1.80;;
13785;SDS011;47474;48.824;9.384;2023-07-29T11:37:27;1.90;;;1.70;;
13785;SDS011;47474;48.824;9.384;2023-07-29T11:39:54;1.92;;;1.70;;
13785;SDS011;47474;48.824;9.384;2023-07-29T11:42:22;1.67;;;1.58;;
13785;SDS011;47474;48.824;9.384;2023-07-29T11:44:49;1.98;;;1.73;;
13785;SDS011;47474;48.824;9.384;2023-07-29T11:47:15;2.83;;;1.90;;
13785;SDS011;47474;48.824;9.384;2023-07-29T11:49:42;1.52;;;1.40;;
13785;SDS011;47474;48.824;9.384;2023-07-29T11:52:09;1.83;;;1.73;;
13785;SDS011;47474;48.824;9.384;2023-07-29T11:54:37;1.85;;;1.75;;
13785;SDS011;47474;48.824;9.384;2023-07-29T11:57:05;2.78;;;1.60;;
13785;SDS011;47474;48.824;9.384;2023-07-29T11:59:34;1.58;;;1.40;;
13785;SDS011;47474;48.824;9.384;2023-07-29T12:02:01;2.03;;;1.65;;
13785;SDS011;47474;48.824;9.384;2023-07-29T12:04:32;1.67;;;1.50;;
13785;SDS011;47474;48.824;9.384;2023-07-29T12:06:59;1.48;;;1.38;;
13785;SDS011;47474;48.824;9.384;2023-07-29T12:09:26;3.10;;;1.52;;
13785;SDS011;47474;48.824;9.384;2023-07-29T12:11:53;1.90;;;1.40;;
13785;SDS011;47474;48.824;9.384;2023-07-29T12:14:20;1.77;;;1.60;;
13785;SDS011;47474;48.824;9.384;2023-07-29T12:16:48;1.60;;;1.50;;
13785;SDS011;47474;48.824;9.384;2023-07-29T12:19:17;2.33;;;1.80;;
13785;SDS011;47474;48.824;9.384;2023-07-29T12:21:44;2.05;;;1.83;;
13785;SDS011;47474;48.824;9.384;2023-07-29T12:24:11;2.03;;;1.92;;
13785;SDS011;47474;48.824;9.384;2023-07-29T12:26:38;2.35;;;1.48;;
13785;SDS011;47474;48.824;9.384;2023-07-29T12:29:11;2.53;;;1.77;;
13785;SDS011;47474;48.824;9.384;2023-07-29T12:31:38;2.63;;;1.70;;
13785;SDS011;47474;48.824;9.384;2023-07-29T12:34:06;1.88;;;1.70;;
13785;SDS011;47474;48.824;9.384;2023-07-29T12:36:42;2.13;;;1.92;;
13785;SDS011;47474;48.824;9.384;2023-07-29T12:39:15;1.70;;;1.60;;
13785;SDS011;47474;48.824;9.384;2023-07-29T12:41:43;1.65;;;1.52;;
13785;SDS011;47474;48.824;9.384;2023-07-29T12:44:09;1.90;;;1.80;;
13785;SDS011;47474;48.824;9.384;2023-07-29T12:46:36;1.83;;;1.70;;
13785;SDS011;47474;48.824;9.384;2023-07-29T12:49:03;2.47;;;1.83;;
13785;SDS011;47474;48.824;9.384;2023-07-29T12:51:31;2.75;;;1.80;;
13785;SDS011;47474;48.824;9.384;2023-07-29T12:53:57;3.80;;;1.63;;
13785;SDS011;47474;48.824;9.384;2023-07-29T12:56:24;1.70;;;1.60;;
13785;SDS011;47474;48.824;9.384;2023-07-29T12:58:51;2.05;;;1.70;;
13785;SDS011;47474;48.824;9.384;2023-07-29T13:01:18;2.30;;;2.10;;
13785;SDS011;47474;48.824;9.384;2023-07-29T13:03:44;3.13;;;1.98;;
13785;SDS011;47474;48.824;9.384;2023-07-29T13:06:11;3.85;;;1.83;;
13785;SDS011;47474;48.824;9.384;2023-07-29T13:08:39;1.80;;;1.70;;
13785;SDS011;47474;48.824;9.384;2023-07-29T13:11:06;1.70;;;1.60;;
13785;SDS011;47474;48.824;9.384;2023-07-29T13:13:32;2.05;;;1.90;;
13785;SDS011;47474;48.824;9.384;2023-07-29T13:15:59;2.90;;;1.85;;
13785;SDS011;47474;48.824;9.384;2023-07-29T13:18:26;2.00;;;1.90;;
13785;SDS011;47474;48.824;9.384;2023-07-29T13:20:53;3.45;;;1.90;;
13785;SDS011;47474;48.824;9.384;2023-07-29T13:23:19;2.65;;;1.70;;
13785;SDS011;47474;48.824;9.384;2023-07-29T13:25:47;1.67;;;1.58;;
13785;SDS011;47474;48.824;9.384;2023-07-29T13:28:14;2.92;;;2.38;;
13785;SDS011;47474;48.824;9.384;2023-07-29T13:30:40;2.38;;;1.90;;
13785;SDS011;47474;48.824;9.384;2023-07-29T13:33:07;1.83;;;1.73;;
13785;SDS011;47474;48.824;9.384;2023-07-29T13:35:34;2.60;;;2.10;;
13785;SDS011;47474;48.824;9.384;2023-07-29T13:38:00;1.75;;;1.65;;
13785;SDS011;47474;48.824;9.384;2023-07-29T13:40:27;2.92;;;1.80;;
13785;SDS011;47474;48.824;9.384;2023-07-29T13:42:55;2.83;;;1.73;;
13785;SDS011;47474;48.824;9.384;2023-07-29T13:45:22;1.98;;;1.88;;
13785;SDS011;47474;48.824;9.384;2023-07-29T13:47:49;2.03;;;1.80;;
13785;SDS011;47474;48.824;9.384;2023-07-29T13:50:16;2.60;;;1.85;;
13785;SDS011;47474;48.824;9.384;2023-07-29T13:52:42;2.10;;;1.90;;
13785;SDS011;47474;48.824;9.384;2023-07-29T13:55:09;1.98;;;1.42;;
13785;SDS011;47474;48.824;9.384;2023-07-29T13:57:36;2.55;;;1.67;;
13785;SDS011;47474;48.824;9.384;2023-07-29T14:00:05;1.65;;;1.55;;
13785;SDS011;47474;48.824;9.384;2023-07-29T14:02:33;1.85;;;1.75;;
13785;SDS011;47474;48.824;9.384;2023-07-29T14:04:59;2.00;;;1.88;;
13785;SDS011;47474;48.824;9.384;2023-07-29T14:07:26;1.85;;;1.55;;
13785;SDS011;47474;48.824;9.384;2023-07-29T14:09:52;1.90;;;1.80;;
13785;SDS011;47474;48.824;9.384;2023-07-29T14:12:19;2.00;;;1.80;;
13785;SDS011;47474;48.824;9.384;2023-07-29T14:14:46;2.58;;;1.83;;
13785;SDS011;47474;48.824;9.384;2023-07-29T14:17:13;3.55;;;2.00;;
13785;SDS011;47474;48.824;9.384;2023-07-29T14:19:40;2.65;;;1.77;;
13785;SDS011;47474;48.824;9.384;2023-07-29T14:22:07;2.38;;;1.95;;
13785;SDS011;47474;48.824;9.384;2023-07-29T14:24:33;2.13;;;1.92;;
13785;SDS011;47474;48.824;9.384;2023-07-29T14:27:00;2.20;;;2.00;;
13785;SDS011;47474;48.824;9.384;2023-07-29T14:29:26;2.78;;;2.20;;
13785;SDS011;47474;48.824;9.384;2023-07-29T14:31:53;2.10;;;1.65;;
13785;SDS011;47474;48.824;9.384;2023-07-29T14:34:21;2.20;;;1.50;;
13785;SDS011;47474;48.824;9.384;2023-07-29T14:36:47;2.13;;;2.00;;
13785;SDS011;47474;48.824;9.384;2023-07-29T14:39:14;2.15;;;1.88;;
13785;SDS011;47474;48.824;9.384;2023-07-29T14:41:41;3.30;;;2.03;;
13785;SDS011;47474;48.824;9.384;2023-07-29T14:44:07;2.08;;;1.95;;
13785;SDS011;47474;48.824;9.384;2023-07-29T14:46:34;2.00;;;1.83;;
13785;SDS011;47474;48.824;9.384;2023-07-29T14:49:00;1.67;;;1.58;;
13785;SDS011;47474;48.824;9.384;2023-07-29T14:51:28;2.20;;;2.00;;
13785;SDS011;47474;48.824;9.384;2023-07-29T14:53:55;2.35;;;1.75;;
13785;SDS011;47474;48.824;9.384;2023-07-29T14:56:21;1.95;;;1.70;;
13785;SDS011;47474;48.824;9.384;2023-07-29T14:58:48;1.77;;;1.67;;
13785;SDS011;47474;48.824;9.384;2023-07-29T15:01:15;2.03;;;1.90;;
13785;SDS011;47474;48.824;9.384;2023-07-29T15:03:42;2.00;;;1.80;;
13785;SDS011;47474;48.824;9.384;2023-07-29T15:06:08;3.35;;;1.60;;
13785;SDS011;47474;48.824;9.384;2023-07-29T15:08:36;2.58;;;1.90;;
13785;SDS011;47474;48.824;9.384;2023-07-29T15:11:03;1.95;;;1.77;;
13785;SDS011;47474;48.824;9.384;2023-07-29T15:13:29;1.92;;;1.83;;
13785;SDS011;47474;48.824;9.384;2023-07-29T15:15:56;2.17;;;1.90;;
13785;SDS011;47474;48.824;9.384;2023-07-29T15:18:23;2.03;;;1.83;;